createdAt,value
2023-04-27T00:00:32.911Z,7.08
2023-04-27T00:01:33.097Z,7.07
2023-04-27T00:02:33.504Z,7.04
2023-04-27T00:03:32.827Z,7.04
2023-04-27T00:04:33.265Z,7.04
2023-04-27T00:05:32.389Z,7.04
2023-04-27T00:06:33.522Z,7.05
2023-04-27T00:07:31.821Z,7.07
2023-04-27T00:08:32.096Z,7.07
2023-04-27T00:09:32.430Z,7.04
2023-04-27T00:10:33.670Z,7.01
2023-04-27T00:11:32.969Z,7.05
2023-04-27T00:12:32.266Z,7.05
2023-04-27T00:13:32.564Z,7.08
2023-04-27T00:14:31.851Z,7.07
2023-04-27T00:15:32.202Z,7.04
2023-04-27T00:16:33.548Z,7.05
2023-04-27T00:17:32.696Z,6.99
2023-04-27T00:18:32.016Z,6.97
2023-04-27T00:19:32.324Z,6.97
2023-04-27T00:20:32.562Z,6.94
2023-04-27T00:21:31.947Z,6.87
2023-04-27T00:22:32.214Z,6.81
2023-04-27T00:23:32.512Z,6.78
2023-04-27T00:24:32.735Z,6.75
2023-04-27T00:25:32.064Z,6.79
2023-04-27T00:26:32.450Z,6.75
2023-04-27T00:27:31.632Z,6.75
2023-04-27T00:28:32.892Z,6.73
2023-04-27T00:29:32.234Z,6.72
2023-04-27T00:30:32.570Z,6.68
2023-04-27T00:31:31.878Z,6.68
2023-04-27T00:32:32.227Z,6.69
2023-04-27T00:33:32.455Z,6.68
2023-04-27T00:34:31.740Z,6.65
2023-04-27T00:35:32.065Z,6.65
2023-04-27T00:36:32.364Z,6.65
2023-04-27T00:37:31.667Z,6.69
2023-04-27T00:38:31.996Z,6.65
2023-04-27T00:39:33.247Z,6.65
2023-04-27T00:40:31.563Z,6.65
2023-04-27T00:41:32.868Z,6.61
2023-04-27T00:42:32.203Z,6.58
2023-04-27T00:43:31.509Z,6.54
2023-04-27T00:44:32.172Z,6.50
2023-04-27T00:45:32.158Z,6.48
2023-04-27T00:46:31.497Z,6.50
2023-04-27T00:47:32.711Z,6.46
2023-04-27T00:48:32.983Z,6.48
2023-04-27T00:49:32.233Z,6.48
2023-04-27T00:50:31.917Z,6.50
2023-04-27T00:51:32.905Z,6.50
2023-04-27T00:52:31.175Z,6.50
2023-04-27T00:53:31.491Z,6.51
2023-04-27T00:54:31.802Z,6.54
2023-04-27T00:55:32.118Z,6.54
2023-04-27T00:56:31.418Z,6.55
2023-04-27T00:57:31.733Z,6.53
2023-04-27T00:58:32.057Z,6.54
2023-04-27T00:59:31.325Z,6.55
2023-04-27T01:00:31.662Z,6.58
2023-04-27T01:01:32.041Z,6.64
2023-04-27T01:02:31.464Z,6.63
2023-04-27T01:03:31.706Z,6.58
2023-04-27T01:04:32.027Z,6.57
2023-04-27T01:05:32.788Z,6.53
2023-04-27T01:06:31.786Z,6.48
2023-04-27T01:07:32.548Z,6.45
2023-04-27T01:08:31.067Z,6.46
2023-04-27T01:09:32.322Z,6.46
2023-04-27T01:10:31.681Z,6.43
2023-04-27T01:11:30.942Z,6.45
2023-04-27T01:12:31.529Z,6.45
2023-04-27T01:13:32.551Z,6.45
2023-04-27T01:14:32.870Z,6.46
2023-04-27T01:15:32.176Z,6.46
2023-04-27T01:16:31.556Z,6.54
2023-04-27T01:17:32.073Z,6.60
2023-04-27T01:18:31.102Z,6.60
2023-04-27T01:19:31.394Z,6.61
2023-04-27T01:20:31.708Z,6.60
2023-04-27T01:21:30.971Z,6.57
2023-04-27T01:22:31.286Z,6.60
2023-04-27T01:23:31.686Z,6.60
2023-04-27T01:24:30.842Z,6.60
2023-04-27T01:25:31.149Z,6.63
2023-04-27T01:26:31.436Z,6.61
2023-04-27T01:27:33.183Z,6.63
2023-04-27T01:28:31.021Z,6.68
2023-04-27T01:29:31.319Z,6.72
2023-04-27T01:30:31.615Z,6.71
2023-04-27T01:31:30.934Z,6.78
2023-04-27T01:32:31.235Z,6.76
2023-04-27T01:33:32.413Z,6.78
2023-04-27T01:34:30.690Z,6.76
2023-04-27T01:35:31.031Z,6.75
2023-04-27T01:36:31.281Z,6.75
2023-04-27T01:37:31.941Z,6.73
2023-04-27T01:38:30.831Z,6.75
2023-04-27T01:39:31.151Z,6.73
2023-04-27T01:40:31.673Z,6.72
2023-04-27T01:41:31.643Z,6.72
2023-04-27T01:42:31.013Z,6.72
2023-04-27T01:43:31.361Z,6.75
2023-04-27T01:44:30.610Z,6.75
2023-04-27T01:45:30.599Z,6.73
2023-04-27T01:46:31.025Z,6.71
2023-04-27T01:47:31.210Z,6.69
2023-04-27T01:48:30.587Z,6.63
2023-04-27T01:49:30.784Z,6.60
2023-04-27T01:50:32.057Z,6.58
2023-04-27T01:51:31.743Z,6.57
2023-04-27T01:52:31.616Z,6.57
2023-04-27T01:53:31.909Z,6.60
2023-04-27T01:54:32.241Z,6.63
2023-04-27T01:55:30.535Z,6.61
2023-04-27T01:56:30.894Z,6.61
2023-04-27T01:57:31.282Z,6.60
2023-04-27T01:58:30.470Z,6.57
2023-04-27T01:59:30.779Z,6.54
2023-04-27T02:00:31.092Z,6.50
2023-04-27T02:01:31.498Z,6.45
2023-04-27T02:02:30.795Z,6.42
2023-04-27T02:03:31.187Z,6.39
2023-04-27T02:04:31.333Z,6.38
2023-04-27T02:05:30.597Z,6.38
2023-04-27T02:06:30.920Z,6.39
2023-04-27T02:07:30.215Z,6.38
2023-04-27T02:08:30.510Z,6.36
2023-04-27T02:09:30.912Z,6.36
2023-04-27T02:10:31.133Z,6.39
2023-04-27T02:11:30.414Z,6.40
2023-04-27T02:12:30.773Z,6.45
2023-04-27T02:13:32.011Z,6.43
2023-04-27T02:14:31.289Z,6.48
2023-04-27T02:15:30.708Z,6.50
2023-04-27T02:16:31.946Z,6.53
2023-04-27T02:17:30.572Z,6.54
2023-04-27T02:18:31.488Z,6.50
2023-04-27T02:19:31.795Z,6.50
2023-04-27T02:20:30.104Z,6.46
2023-04-27T02:21:30.441Z,6.40
2023-04-27T02:22:30.743Z,6.35
2023-04-27T02:23:30.001Z,6.30
2023-04-27T02:24:30.322Z,6.24
2023-04-27T02:25:30.649Z,6.24
2023-04-27T02:26:30.960Z,6.20
2023-04-27T02:27:30.241Z,6.20
2023-04-27T02:28:30.514Z,6.16
2023-04-27T02:29:30.852Z,6.13
2023-04-27T02:30:30.145Z,6.10
2023-04-27T02:31:30.018Z,6.08
2023-04-27T02:32:30.374Z,6.08
2023-04-27T02:33:30.619Z,6.08
2023-04-27T02:34:29.914Z,6.10
2023-04-27T02:35:30.247Z,6.14
2023-04-27T02:36:30.572Z,6.11
2023-04-27T02:37:30.808Z,6.13
2023-04-27T02:38:30.243Z,6.14
2023-04-27T02:39:30.494Z,6.16
2023-04-27T02:40:29.794Z,6.17
2023-04-27T02:41:30.167Z,6.17
2023-04-27T02:42:30.462Z,6.17
2023-04-27T02:43:30.720Z,6.19
2023-04-27T02:44:30.078Z,6.20
2023-04-27T02:45:30.452Z,6.17
2023-04-27T02:46:30.721Z,6.17
2023-04-27T02:47:29.976Z,6.20
2023-04-27T02:48:30.252Z,6.20
2023-04-27T02:49:30.656Z,6.20
2023-04-27T02:50:30.803Z,6.20
2023-04-27T02:51:31.141Z,6.20
2023-04-27T02:52:31.452Z,6.20
2023-04-27T02:53:29.752Z,6.20
2023-04-27T02:54:31.019Z,6.21
2023-04-27T02:55:30.486Z,6.25
2023-04-27T02:56:30.611Z,6.27
2023-04-27T02:57:30.928Z,6.27
2023-04-27T02:58:31.219Z,6.27
2023-04-27T02:59:30.491Z,6.25
2023-04-27T03:00:29.850Z,6.21
2023-04-27T03:01:30.270Z,6.20
2023-04-27T03:02:30.548Z,6.20
2023-04-27T03:03:29.880Z,6.16
2023-04-27T03:04:30.118Z,6.14
2023-04-27T03:05:31.342Z,6.16
2023-04-27T03:06:29.639Z,6.14
2023-04-27T03:07:29.990Z,6.13
2023-04-27T03:08:31.261Z,6.10
2023-04-27T03:09:30.567Z,6.06
2023-04-27T03:10:29.938Z,6.06
2023-04-27T03:11:31.254Z,6.05
2023-04-27T03:12:29.567Z,6.03
2023-04-27T03:13:30.237Z,6.02
2023-04-27T03:14:30.269Z,6.03
2023-04-27T03:15:29.571Z,6.05
2023-04-27T03:16:29.913Z,6.02
2023-04-27T03:17:31.221Z,6.02
2023-04-27T03:18:30.310Z,6.03
2023-04-27T03:19:29.831Z,6.02
2023-04-27T03:20:30.005Z,6.02
2023-04-27T03:21:30.292Z,6.06
2023-04-27T03:22:30.645Z,6.06
2023-04-27T03:23:30.988Z,6.11
2023-04-27T03:24:29.264Z,6.14
2023-04-27T03:25:29.651Z,6.16
2023-04-27T03:26:29.874Z,6.14
2023-04-27T03:27:29.140Z,6.16
2023-04-27T03:28:29.447Z,6.17
2023-04-27T03:29:29.765Z,6.14
2023-04-27T03:30:29.061Z,6.14
2023-04-27T03:31:29.460Z,6.17
2023-04-27T03:32:30.715Z,6.16
2023-04-27T03:33:31.005Z,6.16
2023-04-27T03:34:30.273Z,6.16
2023-04-27T03:35:29.699Z,6.17
2023-04-27T03:36:29.984Z,6.14
2023-04-27T03:37:29.262Z,6.13
2023-04-27T03:38:29.579Z,6.14
2023-04-27T03:39:29.905Z,6.14
2023-04-27T03:40:29.161Z,6.13
2023-04-27T03:41:29.508Z,6.14
2023-04-27T03:42:29.846Z,6.14
2023-04-27T03:43:29.065Z,6.17
2023-04-27T03:44:29.469Z,6.21
2023-04-27T03:45:29.736Z,6.21
2023-04-27T03:46:29.160Z,6.20
2023-04-27T03:47:29.371Z,6.19
2023-04-27T03:48:29.652Z,6.17
2023-04-27T03:49:29.894Z,6.19
2023-04-27T03:50:30.470Z,6.20
2023-04-27T03:51:29.509Z,6.20
2023-04-27T03:52:29.766Z,6.24
2023-04-27T03:53:30.093Z,6.21
2023-04-27T03:54:29.711Z,6.27
2023-04-27T03:55:30.692Z,6.28
2023-04-27T03:56:30.016Z,6.33
2023-04-27T03:57:30.284Z,6.32
2023-04-27T03:58:30.590Z,6.30
2023-04-27T03:59:29.895Z,6.28
2023-04-27T04:00:29.297Z,6.25
2023-04-27T04:01:30.540Z,6.24
2023-04-27T04:02:29.068Z,6.24
2023-04-27T04:03:30.300Z,6.20
2023-04-27T04:04:30.669Z,6.17
2023-04-27T04:05:28.778Z,6.17
2023-04-27T04:06:30.091Z,6.17
2023-04-27T04:07:29.910Z,6.14
2023-04-27T04:08:28.734Z,6.14
2023-04-27T04:09:29.012Z,6.16
2023-04-27T04:10:30.323Z,6.17
2023-04-27T04:11:29.623Z,6.14
2023-04-27T04:12:29.999Z,6.11
2023-04-27T04:13:30.234Z,6.06
2023-04-27T04:14:29.541Z,6.05
2023-04-27T04:15:29.872Z,6.01
2023-04-27T04:16:29.229Z,5.98
2023-04-27T04:17:29.508Z,5.90
2023-04-27T04:18:29.874Z,5.83
2023-04-27T04:19:30.085Z,5.80
2023-04-27T04:20:29.373Z,5.75
2023-04-27T04:21:29.649Z,5.69
2023-04-27T04:22:29.960Z,5.65
2023-04-27T04:23:30.297Z,5.66
2023-04-27T04:24:29.583Z,5.74
2023-04-27T04:25:28.912Z,5.80
2023-04-27T04:26:30.179Z,5.88
2023-04-27T04:27:29.449Z,5.92
2023-04-27T04:28:29.769Z,5.96
2023-04-27T04:29:30.141Z,5.99
2023-04-27T04:30:29.352Z,6.02
2023-04-27T04:31:29.745Z,6.02
2023-04-27T04:32:30.038Z,6.01
2023-04-27T04:33:29.240Z,5.96
2023-04-27T04:34:28.587Z,5.96
2023-04-27T04:35:29.904Z,5.93
2023-04-27T04:36:29.194Z,5.93
2023-04-27T04:37:28.486Z,5.92
2023-04-27T04:38:28.819Z,5.92
2023-04-27T04:39:30.080Z,5.95
2023-04-27T04:40:28.379Z,5.90
2023-04-27T04:41:29.737Z,5.87
2023-04-27T04:42:29.946Z,5.85
2023-04-27T04:43:28.247Z,5.84
2023-04-27T04:44:28.547Z,5.84
2023-04-27T04:45:29.804Z,5.81
2023-04-27T04:46:29.045Z,5.83
2023-04-27T04:47:28.501Z,5.83
2023-04-27T04:48:28.698Z,5.85
2023-04-27T04:49:29.049Z,5.88
2023-04-27T04:50:28.305Z,5.93
2023-04-27T04:51:28.607Z,5.95
2023-04-27T04:52:29.881Z,5.93
2023-04-27T04:53:29.084Z,5.96
2023-04-27T04:54:29.413Z,5.98
2023-04-27T04:55:29.736Z,5.99
2023-04-27T04:56:28.028Z,6.02
2023-04-27T04:57:29.280Z,6.05
2023-04-27T04:58:28.699Z,6.05
2023-04-27T04:59:29.035Z,6.08
2023-04-27T05:00:28.202Z,6.06
2023-04-27T05:01:29.471Z,6.06
2023-04-27T05:02:29.664Z,6.05
2023-04-27T05:03:28.274Z,6.05
2023-04-27T05:04:28.543Z,6.06
2023-04-27T05:05:29.683Z,6.06
2023-04-27T05:06:27.970Z,6.06
2023-04-27T05:07:28.290Z,6.11
2023-04-27T05:08:28.634Z,6.14
2023-04-27T05:09:27.930Z,6.14
2023-04-27T05:10:28.269Z,6.14
2023-04-27T05:11:29.496Z,6.14
2023-04-27T05:12:27.795Z,6.14
2023-04-27T05:13:28.146Z,6.14
2023-04-27T05:14:29.405Z,6.19
2023-04-27T05:15:29.758Z,6.24
2023-04-27T05:16:28.065Z,6.25
2023-04-27T05:17:28.313Z,6.25
2023-04-27T05:18:29.556Z,6.27
2023-04-27T05:19:27.860Z,6.27
2023-04-27T05:20:29.093Z,6.25
2023-04-27T05:21:29.528Z,6.24
2023-04-27T05:22:27.752Z,6.27
2023-04-27T05:23:28.029Z,6.28
2023-04-27T05:24:28.326Z,6.30
2023-04-27T05:25:27.598Z,6.33
2023-04-27T05:26:27.934Z,6.28
2023-04-27T05:27:29.377Z,6.30
2023-04-27T05:28:28.552Z,6.28
2023-04-27T05:29:27.777Z,6.32
2023-04-27T05:30:28.169Z,6.33
2023-04-27T05:31:29.378Z,6.30
2023-04-27T05:32:27.724Z,6.30
2023-04-27T05:33:27.962Z,6.30
2023-04-27T05:34:29.194Z,6.30
2023-04-27T05:35:27.533Z,6.33
2023-04-27T05:36:27.810Z,6.35
2023-04-27T05:37:28.120Z,6.35
2023-04-27T05:38:27.344Z,6.32
2023-04-27T05:39:27.642Z,6.33
2023-04-27T05:40:27.458Z,6.32
2023-04-27T05:41:27.746Z,6.35
2023-04-27T05:42:28.047Z,6.36
2023-04-27T05:43:27.329Z,6.38
2023-04-27T05:44:27.603Z,6.38
2023-04-27T05:45:27.954Z,6.36
2023-04-27T05:46:28.323Z,6.39
2023-04-27T05:47:27.552Z,6.42
2023-04-27T05:48:27.378Z,6.42
2023-04-27T05:49:28.656Z,6.45
2023-04-27T05:50:27.982Z,6.48
2023-04-27T05:51:27.325Z,6.51
2023-04-27T05:52:27.617Z,6.55
2023-04-27T05:53:27.892Z,6.58
2023-04-27T05:54:27.280Z,6.61
2023-04-27T05:55:27.585Z,6.65
2023-04-27T05:56:27.910Z,6.69
2023-04-27T05:57:27.194Z,6.72
2023-04-27T05:58:27.511Z,6.72
2023-04-27T05:59:27.816Z,6.78
2023-04-27T06:00:28.090Z,6.76
2023-04-27T06:01:27.357Z,6.79
2023-04-27T06:02:27.804Z,6.82
2023-04-27T06:03:28.245Z,6.82
2023-04-27T06:04:27.617Z,6.91
2023-04-27T06:05:28.752Z,6.94
2023-04-27T06:06:27.941Z,6.96
2023-04-27T06:07:27.206Z,6.99
2023-04-27T06:08:27.530Z,7.01
2023-04-27T06:09:27.989Z,7.01
2023-04-27T06:10:27.102Z,7.01
2023-04-27T06:11:27.380Z,7.01
2023-04-27T06:12:27.623Z,7.04
2023-04-27T06:13:27.908Z,7.04
2023-04-27T06:14:27.157Z,7.04
2023-04-27T06:15:27.458Z,7.00
2023-04-27T06:16:27.854Z,7.00
2023-04-27T06:17:26.963Z,6.99
2023-04-27T06:18:27.225Z,6.97
2023-04-27T06:19:27.493Z,6.94
2023-04-27T06:20:27.855Z,6.96
2023-04-27T06:21:27.063Z,6.97
2023-04-27T06:22:27.329Z,6.97
2023-04-27T06:23:28.583Z,7.00
2023-04-27T06:24:27.865Z,6.97
2023-04-27T06:25:27.420Z,6.96
2023-04-27T06:26:27.596Z,6.96
2023-04-27T06:27:26.739Z,6.97
2023-04-27T06:28:27.064Z,6.99
2023-04-27T06:29:27.334Z,7.00
2023-04-27T06:30:27.696Z,7.04
2023-04-27T06:31:26.922Z,7.07
2023-04-27T06:32:27.292Z,7.11
2023-04-27T06:33:27.513Z,7.15
2023-04-27T06:34:26.788Z,7.18
2023-04-27T06:35:27.060Z,7.24
2023-04-27T06:36:27.360Z,7.27
2023-04-27T06:37:27.574Z,7.26
2023-04-27T06:38:26.893Z,7.27
2023-04-27T06:39:27.178Z,7.33
2023-04-27T06:40:27.573Z,7.34
2023-04-27T06:41:27.684Z,7.37
2023-04-27T06:42:26.999Z,7.44
2023-04-27T06:43:27.297Z,7.47
2023-04-27T06:44:26.562Z,7.51
2023-04-27T06:45:26.809Z,7.55
2023-04-27T06:46:27.155Z,7.58
2023-04-27T06:47:27.386Z,7.62
2023-04-27T06:48:26.689Z,7.63
2023-04-27T06:49:26.979Z,7.62
2023-04-27T06:50:27.307Z,7.67
2023-04-27T06:51:26.468Z,7.69
2023-04-27T06:52:26.772Z,7.76
2023-04-27T06:53:27.065Z,7.76
2023-04-27T06:54:27.423Z,7.79
2023-04-27T06:55:27.535Z,7.73
2023-04-27T06:56:26.825Z,7.84
2023-04-27T06:57:27.116Z,7.85
2023-04-27T06:58:26.339Z,7.89
2023-04-27T06:59:26.622Z,7.94
2023-04-27T07:00:26.914Z,7.99
2023-04-27T07:01:27.221Z,8.02
2023-04-27T07:02:26.425Z,8.03
2023-04-27T07:03:26.852Z,8.06
2023-04-27T07:04:27.041Z,8.09
2023-04-27T07:05:27.209Z,8.12
2023-04-27T07:06:26.432Z,8.12
2023-04-27T07:07:26.756Z,8.12
2023-04-27T07:08:26.992Z,8.14
2023-04-27T07:09:27.983Z,8.17
2023-04-27T07:10:27.458Z,8.20
2023-04-27T07:11:26.782Z,8.27
2023-04-27T07:12:27.024Z,8.28
2023-04-27T07:13:26.262Z,8.31
2023-04-27T07:14:26.516Z,8.37
2023-04-27T07:15:26.795Z,8.40
2023-04-27T07:16:27.129Z,8.43
2023-04-27T07:17:26.350Z,8.46
2023-04-27T07:18:27.536Z,8.43
2023-04-27T07:19:27.819Z,8.45
2023-04-27T07:20:26.049Z,8.46
2023-04-27T07:21:26.278Z,8.49
2023-04-27T07:22:26.858Z,8.49
2023-04-27T07:23:26.834Z,8.50
2023-04-27T07:24:26.040Z,8.55
2023-04-27T07:25:26.276Z,8.57
2023-04-27T07:26:26.512Z,8.60
2023-04-27T07:27:27.738Z,8.61
2023-04-27T07:28:26.336Z,8.65
2023-04-27T07:29:27.543Z,8.70
2023-04-27T07:30:27.517Z,8.71
2023-04-27T07:31:27.790Z,8.75
2023-04-27T07:32:29.143Z,8.76
2023-04-27T07:33:26.311Z,8.79
2023-04-27T07:34:28.001Z,8.85
2023-04-27T07:35:25.827Z,8.93
2023-04-27T07:36:26.092Z,8.97
2023-04-27T07:37:26.385Z,9.03
2023-04-27T07:38:26.661Z,9.04
2023-04-27T07:39:25.819Z,9.04
2023-04-27T07:40:26.123Z,9.01
2023-04-27T07:41:27.312Z,8.97
2023-04-27T07:42:27.577Z,8.97
2023-04-27T07:43:25.830Z,9.00
2023-04-27T07:44:26.118Z,9.04
2023-04-27T07:45:26.477Z,9.08
2023-04-27T07:46:27.571Z,9.15
2023-04-27T07:47:26.760Z,9.19
2023-04-27T07:48:26.108Z,9.19
2023-04-27T07:49:26.428Z,9.17
2023-04-27T07:50:26.612Z,9.12
2023-04-27T07:51:25.894Z,9.13
2023-04-27T07:52:26.052Z,9.16
2023-04-27T07:53:26.331Z,9.17
2023-04-27T07:54:26.578Z,9.22
2023-04-27T07:55:25.800Z,9.27
2023-04-27T07:56:26.122Z,9.35
2023-04-27T07:57:26.317Z,9.40
2023-04-27T07:58:25.578Z,9.44
2023-04-27T07:59:25.827Z,9.45
2023-04-27T08:00:26.096Z,9.45
2023-04-27T08:01:26.672Z,9.44
2023-04-27T08:02:25.671Z,9.49
2023-04-27T08:03:26.060Z,9.56
2023-04-27T08:04:26.459Z,9.70
2023-04-27T08:05:26.700Z,9.78
2023-04-27T08:06:26.064Z,9.81
2023-04-27T08:07:26.192Z,9.77
2023-04-27T08:08:26.149Z,9.78
2023-04-27T08:09:26.432Z,9.85
2023-04-27T08:10:25.633Z,9.89
2023-04-27T08:11:25.893Z,9.93
2023-04-27T08:12:26.155Z,9.96
2023-04-27T08:13:25.649Z,9.96
2023-04-27T08:14:25.591Z,9.99
2023-04-27T08:15:25.858Z,10.02
2023-04-27T08:16:26.139Z,10.06
2023-04-27T08:17:25.346Z,10.07
2023-04-27T08:18:25.635Z,10.09
2023-04-27T08:19:25.855Z,10.13
2023-04-27T08:20:27.079Z,10.14
2023-04-27T08:21:25.328Z,10.18
2023-04-27T08:22:25.592Z,10.24
2023-04-27T08:23:25.865Z,10.22
2023-04-27T08:24:26.148Z,10.24
2023-04-27T08:25:26.306Z,10.26
2023-04-27T08:26:26.472Z,10.31
2023-04-27T08:27:25.856Z,10.35
2023-04-27T08:28:26.097Z,10.38
2023-04-27T08:29:28.454Z,10.39
2023-04-27T08:30:26.510Z,10.42
2023-04-27T08:31:25.850Z,10.44
2023-04-27T08:32:27.069Z,10.47
2023-04-27T08:33:26.251Z,10.52
2023-04-27T08:34:25.545Z,10.55
2023-04-27T08:35:25.799Z,10.51
2023-04-27T08:36:27.015Z,10.38
2023-04-27T08:37:26.256Z,10.39
2023-04-27T08:38:26.476Z,10.39
2023-04-27T08:39:25.812Z,10.46
2023-04-27T08:40:26.056Z,10.54
2023-04-27T08:41:25.182Z,10.63
2023-04-27T08:42:25.435Z,10.75
2023-04-27T08:43:26.632Z,10.84
2023-04-27T08:44:26.861Z,10.88
2023-04-27T08:45:26.047Z,10.91
2023-04-27T08:46:25.460Z,10.95
2023-04-27T08:47:35.184Z,11.02
2023-04-27T08:48:26.867Z,11.13
2023-04-27T08:49:25.043Z,11.24
2023-04-27T08:50:25.270Z,11.36
2023-04-27T08:51:25.505Z,11.45
2023-04-27T08:52:25.715Z,11.53
2023-04-27T08:53:25.913Z,11.57
2023-04-27T08:54:26.111Z,11.64
2023-04-27T08:55:26.357Z,11.62
2023-04-27T08:56:26.567Z,11.66
2023-04-27T08:57:24.873Z,11.74
2023-04-27T08:58:25.034Z,11.75
2023-04-27T08:59:25.267Z,11.77
2023-04-27T09:00:26.531Z,11.77
2023-04-27T09:01:25.739Z,11.81
2023-04-27T09:02:24.966Z,11.79
2023-04-27T09:03:25.412Z,11.63
2023-04-27T09:04:25.555Z,11.53
2023-04-27T09:05:25.619Z,11.54
2023-04-27T09:06:25.890Z,11.59
2023-04-27T09:07:27.969Z,11.64
2023-04-27T09:08:25.423Z,11.78
2023-04-27T09:09:25.618Z,11.85
2023-04-27T09:10:25.742Z,11.88
2023-04-27T09:11:25.991Z,11.97
2023-04-27T09:12:25.245Z,12.01
2023-04-27T09:13:25.494Z,12.07
2023-04-27T09:14:25.675Z,12.08
2023-04-27T09:15:25.912Z,12.13
2023-04-27T09:16:26.180Z,12.21
2023-04-27T09:17:26.425Z,12.26
2023-04-27T09:18:25.560Z,12.34
2023-04-27T09:19:25.863Z,12.41
2023-04-27T09:20:25.084Z,12.48
2023-04-27T09:21:25.287Z,12.52
2023-04-27T09:22:25.426Z,12.41
2023-04-27T09:23:24.697Z,12.34
2023-04-27T09:24:24.948Z,12.31
2023-04-27T09:25:25.155Z,12.30
2023-04-27T09:26:25.350Z,12.29
2023-04-27T09:27:24.578Z,12.31
2023-04-27T09:28:24.784Z,12.34
2023-04-27T09:29:24.984Z,12.30
2023-04-27T09:30:26.229Z,12.25
2023-04-27T09:31:24.467Z,12.23
2023-04-27T09:32:25.588Z,12.23
2023-04-27T09:33:25.815Z,12.34
2023-04-27T09:34:25.166Z,12.40
2023-04-27T09:35:24.264Z,12.44
2023-04-27T09:36:25.504Z,12.55
2023-04-27T09:37:25.667Z,12.59
2023-04-27T09:38:25.902Z,12.69
2023-04-27T09:39:26.055Z,12.71
2023-04-27T09:40:24.292Z,12.74
2023-04-27T09:41:24.475Z,12.77
2023-04-27T09:42:24.756Z,12.79
2023-04-27T09:43:24.903Z,12.71
2023-04-27T09:44:25.065Z,12.71
2023-04-27T09:45:24.257Z,12.71
2023-04-27T09:46:24.502Z,12.71
2023-04-27T09:47:24.752Z,12.87
2023-04-27T09:48:24.951Z,12.94
2023-04-27T09:49:25.058Z,13.09
2023-04-27T09:50:24.237Z,13.14
2023-04-27T09:51:25.371Z,13.16
2023-04-27T09:52:24.637Z,13.16
2023-04-27T09:53:25.786Z,13.17
2023-04-27T09:54:24.021Z,13.19
2023-04-27T09:55:24.211Z,13.27
2023-04-27T09:56:24.401Z,13.31
2023-04-27T09:57:25.590Z,13.38
2023-04-27T09:58:25.794Z,13.43
2023-04-27T09:59:24.977Z,13.44
2023-04-27T10:00:24.258Z,13.50
2023-04-27T10:01:24.417Z,13.51
2023-04-27T10:02:26.056Z,13.55
2023-04-27T10:03:25.773Z,13.61
2023-04-27T10:04:24.108Z,13.65
2023-04-27T10:05:24.210Z,13.73
2023-04-27T10:06:24.617Z,13.73
2023-04-27T10:07:25.479Z,13.75
2023-04-27T10:08:25.679Z,13.73
2023-04-27T10:09:24.856Z,13.66
2023-04-27T10:10:25.054Z,13.54
2023-04-27T10:11:25.283Z,13.38
2023-04-27T10:12:24.629Z,13.36
2023-04-27T10:13:25.705Z,13.25
2023-04-27T10:14:23.904Z,13.24
2023-04-27T10:15:24.132Z,13.10
2023-04-27T10:16:24.442Z,13.16
2023-04-27T10:17:24.534Z,13.29
2023-04-27T10:18:24.698Z,13.46
2023-04-27T10:19:23.834Z,13.62
2023-04-27T10:20:24.076Z,13.72
2023-04-27T10:21:24.230Z,13.79
2023-04-27T10:22:24.449Z,13.81
2023-04-27T10:23:25.591Z,13.84
2023-04-27T10:24:23.829Z,13.88
2023-04-27T10:25:23.985Z,13.81
2023-04-27T10:26:24.195Z,13.75
2023-04-27T10:27:24.440Z,13.80
2023-04-27T10:28:24.603Z,13.87
2023-04-27T10:29:23.681Z,13.87
2023-04-27T10:30:23.955Z,13.93
2023-04-27T10:31:24.106Z,13.98
2023-04-27T10:32:24.279Z,14.01
2023-04-27T10:33:24.695Z,14.08
2023-04-27T10:34:23.594Z,14.09
2023-04-27T10:35:24.772Z,13.86
2023-04-27T10:36:24.010Z,13.83
2023-04-27T10:37:24.262Z,13.93
2023-04-27T10:38:24.337Z,14.06
2023-04-27T10:39:32.615Z,14.21
2023-04-27T10:40:24.652Z,14.35
2023-04-27T10:41:23.824Z,14.46
2023-04-27T10:42:24.190Z,14.59
2023-04-27T10:43:24.229Z,14.66
2023-04-27T10:44:23.349Z,14.66
2023-04-27T10:45:23.580Z,14.60
2023-04-27T10:46:23.815Z,14.59
2023-04-27T10:47:25.073Z,14.63
2023-04-27T10:48:24.196Z,14.63
2023-04-27T10:49:24.274Z,14.67
2023-04-27T10:50:24.398Z,14.74
2023-04-27T10:51:23.574Z,14.75
2023-04-27T10:52:23.777Z,14.78
2023-04-27T10:53:24.090Z,14.87
2023-04-27T10:54:24.196Z,14.94
2023-04-27T10:55:23.339Z,14.97
2023-04-27T10:56:23.514Z,15.01
2023-04-27T10:57:23.705Z,15.09
2023-04-27T10:58:24.177Z,15.09
2023-04-27T10:59:25.067Z,15.01
2023-04-27T11:00:24.249Z,14.95
2023-04-27T11:01:24.416Z,14.90
2023-04-27T11:02:23.662Z,14.80
2023-04-27T11:03:23.934Z,14.75
2023-04-27T11:04:23.979Z,14.74
2023-04-27T11:05:23.088Z,14.75
2023-04-27T11:06:23.321Z,14.82
2023-04-27T11:07:24.367Z,14.90
2023-04-27T11:08:24.543Z,14.93
2023-04-27T11:09:23.836Z,14.67
2023-04-27T11:10:23.939Z,14.56
2023-04-27T11:11:23.125Z,14.29
2023-04-27T11:12:23.288Z,14.21
2023-04-27T11:13:23.485Z,14.27
2023-04-27T11:14:24.560Z,14.41
2023-04-27T11:15:24.770Z,14.56
2023-04-27T11:16:24.814Z,14.67
2023-04-27T11:17:24.033Z,14.82
2023-04-27T11:18:24.366Z,14.85
2023-04-27T11:19:23.474Z,14.87
2023-04-27T11:20:23.647Z,14.80
2023-04-27T11:21:24.806Z,14.85
2023-04-27T11:22:24.017Z,15.00
2023-04-27T11:23:23.172Z,15.15
2023-04-27T11:24:23.398Z,15.31
2023-04-27T11:25:23.532Z,15.40
2023-04-27T11:26:23.732Z,15.52
2023-04-27T11:27:24.815Z,15.62
2023-04-27T11:28:24.113Z,15.68
2023-04-27T11:29:24.143Z,15.80
2023-04-27T11:30:23.426Z,15.85
2023-04-27T11:31:23.585Z,15.92
2023-04-27T11:32:23.740Z,15.89
2023-04-27T11:33:23.821Z,15.88
2023-04-27T11:34:23.122Z,15.89
2023-04-27T11:35:24.172Z,15.84
2023-04-27T11:36:23.479Z,15.89
2023-04-27T11:37:24.540Z,15.95
2023-04-27T11:38:23.662Z,15.86
2023-04-27T11:39:23.080Z,15.60
2023-04-27T11:40:24.564Z,15.55
2023-04-27T11:41:24.056Z,15.52
2023-04-27T11:42:24.275Z,15.56
2023-04-27T11:43:24.350Z,15.59
2023-04-27T11:44:24.513Z,15.67
2023-04-27T11:45:22.682Z,15.73
2023-04-27T11:46:22.882Z,15.76
2023-04-27T11:47:24.019Z,15.66
2023-04-27T11:48:23.306Z,15.60
2023-04-27T11:49:23.406Z,15.56
2023-04-27T11:50:22.551Z,15.41
2023-04-27T11:51:23.687Z,15.19
2023-04-27T11:52:23.848Z,15.04
2023-04-27T11:53:23.061Z,15.03
2023-04-27T11:54:24.277Z,15.15
2023-04-27T11:55:23.448Z,15.25
2023-04-27T11:56:23.561Z,15.35
2023-04-27T11:57:23.695Z,15.51
2023-04-27T11:58:23.893Z,15.59
2023-04-27T11:59:23.110Z,15.70
2023-04-27T12:00:24.229Z,15.78
2023-04-27T12:01:36.639Z,15.91
2023-04-27T12:02:23.733Z,16.03
2023-04-27T12:03:24.095Z,16.07
2023-04-27T12:04:24.107Z,16.13
2023-04-27T12:05:23.331Z,16.16
2023-04-27T12:07:22.375Z,16.29
2023-04-27T12:08:22.534Z,16.37
2023-04-27T12:09:22.679Z,16.45
2023-04-27T12:10:22.872Z,16.51
2023-04-27T12:11:24.064Z,16.57
2023-04-27T12:12:24.147Z,16.62
2023-04-27T12:13:23.274Z,16.63
2023-04-27T12:14:22.464Z,16.60
2023-04-27T12:15:22.619Z,16.62
2023-04-27T12:16:22.841Z,16.65
2023-04-27T12:17:23.973Z,16.63
2023-04-27T12:18:24.072Z,16.66
2023-04-27T12:19:23.182Z,16.75
2023-04-27T12:20:22.382Z,16.73
2023-04-27T12:21:23.496Z,16.75
2023-04-27T12:22:23.711Z,16.77
2023-04-27T12:23:23.933Z,16.72
2023-04-27T12:24:23.980Z,16.75
2023-04-27T12:25:22.188Z,16.80
2023-04-27T12:26:23.290Z,16.82
2023-04-27T12:27:23.432Z,16.90
2023-04-27T12:28:22.602Z,16.87
2023-04-27T12:29:23.754Z,16.73
2023-04-27T12:30:22.915Z,16.65
2023-04-27T12:31:25.318Z,16.62
2023-04-27T12:32:22.203Z,16.57
2023-04-27T12:33:23.380Z,16.51
2023-04-27T12:34:23.479Z,16.50
2023-04-27T12:35:23.745Z,16.42
2023-04-27T12:36:22.847Z,16.42
2023-04-27T12:37:21.969Z,16.44
2023-04-27T12:38:23.106Z,16.25
2023-04-27T12:39:22.287Z,16.03
2023-04-27T12:40:22.469Z,15.80
2023-04-27T12:41:23.648Z,15.64
2023-04-27T12:42:22.792Z,15.58
2023-04-27T12:43:21.898Z,15.58
2023-04-27T12:44:22.140Z,15.41
2023-04-27T12:45:22.231Z,15.49
2023-04-27T12:46:23.421Z,15.66
2023-04-27T12:47:45.746Z,15.64
2023-04-27T12:48:23.791Z,15.59
2023-04-27T12:49:22.837Z,15.64
2023-04-27T12:50:23.002Z,15.62
2023-04-27T12:51:22.225Z,15.64
2023-04-27T12:52:23.377Z,15.67
2023-04-27T12:53:23.611Z,15.71
2023-04-27T12:54:22.667Z,15.76
2023-04-27T12:55:32.991Z,15.84
2023-04-27T12:56:23.060Z,15.80
2023-04-27T12:57:23.212Z,15.80
2023-04-27T12:58:23.353Z,15.81
2023-04-27T12:59:23.562Z,15.92
2023-04-27T13:00:22.734Z,15.96
2023-04-27T13:01:22.831Z,15.92
2023-04-27T13:02:23.076Z,15.96
2023-04-27T13:03:22.243Z,15.96
2023-04-27T13:04:23.350Z,15.95
2023-04-27T13:05:22.556Z,15.98
2023-04-27T13:06:22.570Z,15.99
2023-04-27T13:07:21.759Z,16.10
2023-04-27T13:08:22.926Z,16.25
2023-04-27T13:09:22.089Z,16.40